Weather at Bantry Aerodrome

Public forecast

Using degrees Celsius for public forecast. Weather courtesy of forecast.io.

Closest aviation weather report (METAR) to Bantry Aerodrome

Report is more than 6 hours old.

Closest report is Kerry Airport, 30.3 nm (56.1 km) N.

2022/12/09 17:30 (retrieved 8 hours ago)

EIKY 091730Z 07003KT 040V100 9999 FEW028 M01/M02 Q1011

Closest aviation forecast (TAF) to Bantry Aerodrome

Closest forecast is Ireland West Knock Airport, 136.3 nm (252.3 km) N.

2022/12/09 22:15 (retrieved 4 hours ago)

TAF TAF EIKN 092209Z 0922/1018 CNL